Time;durP1;ratioP1;P1;durP2;ratioP2;P2;SDS_P1;SDS_P2;PMS_P1;PMS_P2;Temp;Humidity;BMP_temperature;BMP_pressure;BME280_temperature;BME280_humidity;BME280_pressure;Samples;Min_cycle;Max_cycle;Signal;HPM_P1;HPM_P2
2022/09/03 00:02:14;;;;;;;2.67;1.92;;;23.30;48.60;;;;;;6133045;28;82164;-58
2022/09/03 00:05:15;;;;;;;4.65;2.28;;;23.30;48.60;;;;;;6108333;28;80985;-58
2022/09/03 00:08:20;;;;;;;2.42;1.92;;;23.30;48.60;;;;;;6122116;28;80428;-58
2022/09/03 00:11:20;;;;;;;2.95;1.95;;;23.30;48.60;;;;;;6111419;28;80113;-58
2022/09/03 00:14:21;;;;;;;5.15;2.38;;;23.30;48.60;;;;;;6128140;28;87255;-57
2022/09/03 00:17:21;;;;;;;3.53;2.22;;;23.30;48.50;;;;;;6123126;28;80876;-57
2022/09/03 00:20:22;;;;;;;2.25;1.90;;;23.30;48.60;;;;;;6120139;28;80271;-57
2022/09/03 00:23:22;;;;;;;4.13;2.35;;;23.20;48.60;;;;;;6123374;28;80221;-57
2022/09/03 00:26:24;;;;;;;3.53;2.15;;;23.30;48.70;;;;;;6118054;28;80644;-56
2022/09/03 00:29:25;;;;;;;3.28;2.00;;;23.30;48.60;;;;;;6102303;28;80632;-58
2022/09/03 00:32:25;;;;;;;5.10;2.53;;;23.30;48.80;;;;;;6103466;28;80565;-64
2022/09/03 00:35:26;;;;;;;3.47;2.13;;;23.30;48.70;;;;;;6107799;28;86438;-65
2022/09/03 00:38:26;;;;;;;3.95;2.15;;;23.30;48.70;;;;;;6110902;28;80717;-64
2022/09/03 00:41:28;;;;;;;4.13;2.22;;;23.30;48.80;;;;;;6116881;28;83877;-65
2022/09/03 00:44:29;;;;;;;5.47;2.15;;;23.30;48.90;;;;;;6110776;28;80304;-66
2022/09/03 00:47:29;;;;;;;4.68;2.17;;;23.30;48.80;;;;;;6120137;28;81728;-65
2022/09/03 00:50:30;;;;;;;3.55;2.00;;;23.30;48.90;;;;;;6122376;28;81017;-64
2022/09/03 00:53:30;;;;;;;4.75;2.30;;;23.20;48.80;;;;;;6116286;28;80373;-64
2022/09/03 00:56:31;;;;;;;4.50;2.00;;;23.20;48.90;;;;;;6123829;28;80556;-64
2022/09/03 00:59:31;;;;;;;4.95;2.30;;;23.20;48.90;;;;;;6112117;28;80467;-64
2022/09/03 01:02:32;;;;;;;2.88;1.65;;;23.20;48.90;;;;;;6123664;28;83914;-64
2022/09/03 01:05:33;;;;;;;9.27;2.28;;;23.20;48.80;;;;;;6124111;28;82200;-65
2022/09/03 01:08:35;;;;;;;3.75;2.05;;;23.20;48.80;;;;;;6111720;28;83801;-58
2022/09/03 01:11:36;;;;;;;2.40;1.70;;;23.20;48.70;;;;;;6131957;28;85077;-58
2022/09/03 01:14:36;;;;;;;2.67;1.80;;;23.20;48.80;;;;;;6140549;28;80421;-59
2022/09/03 01:17:37;;;;;;;3.30;1.83;;;23.20;48.70;;;;;;6149094;28;80870;-57
2022/09/03 01:20:38;;;;;;;5.85;2.35;;;23.20;48.80;;;;;;6134599;28;84432;-59
2022/09/03 01:23:38;;;;;;;5.82;2.20;;;23.20;48.60;;;;;;6146736;28;81271;-58
2022/09/03 01:26:38;;;;;;;3.90;1.92;;;23.20;48.70;;;;;;6135953;28;81674;-58
2022/09/03 01:29:39;;;;;;;4.57;2.35;;;23.20;48.60;;;;;;6136303;28;80479;-58
2022/09/03 01:32:41;;;;;;;2.33;1.60;;;23.20;48.60;;;;;;6151524;28;80866;-58
2022/09/03 01:35:42;;;;;;;3.67;2.22;;;23.20;48.60;;;;;;6150601;28;81464;-58
2022/09/03 01:38:42;;;;;;;5.20;1.63;;;23.20;48.60;;;;;;6133355;28;80279;-59
2022/09/03 01:45:06;;;;;;;4.88;1.98;;;23.10;48.60;;;;;;6150084;28;80640;-58
2022/09/03 01:48:07;;;;;;;3.63;2.03;;;23.20;48.70;;;;;;6137579;28;80272;-58
2022/09/03 01:51:09;;;;;;;8.43;2.28;;;23.20;48.80;;;;;;6126979;28;80096;-58
2022/09/03 01:54:10;;;;;;;3.03;1.70;;;23.20;48.70;;;;;;6141578;28;80843;-57
2022/09/03 01:57:11;;;;;;;3.20;1.73;;;23.20;48.70;;;;;;6149494;28;83865;-57
2022/09/03 02:00:12;;;;;;;2.67;2.00;;;23.20;48.70;;;;;;6154126;28;80403;-58
2022/09/03 02:03:13;;;;;;;4.68;1.92;;;23.10;48.70;;;;;;6141457;28;83253;-57
2022/09/03 02:06:13;;;;;;;3.65;1.70;;;23.20;48.70;;;;;;6128590;28;80811;-57
2022/09/03 02:09:14;;;;;;;2.78;1.90;;;23.20;48.70;;;;;;6114075;28;91855;-57
2022/09/03 02:12:14;;;;;;;2.30;1.80;;;23.20;48.60;;;;;;6125119;28;81202;-57
2022/09/03 02:15:15;;;;;;;3.45;1.70;;;23.10;48.70;;;;;;6129179;28;80447;-57
2022/09/03 02:18:16;;;;;;;4.05;2.22;;;23.10;48.70;;;;;;6131097;28;83219;-57
2022/09/03 02:21:18;;;;;;;3.40;1.85;;;23.20;48.70;;;;;;6138663;28;80584;-56
2022/09/03 02:24:18;;;;;;;4.03;1.92;;;23.20;48.60;;;;;;6125218;28;80381;-57
2022/09/03 02:27:19;;;;;;;2.85;1.80;;;23.20;48.70;;;;;;6129906;28;80839;-56
2022/09/03 02:30:20;;;;;;;1.80;1.52;;;23.20;48.70;;;;;;6148206;28;82666;-57
2022/09/03 02:33:20;;;;;;;4.65;2.45;;;23.10;48.60;;;;;;6151073;28;80759;-56
2022/09/03 02:36:21;;;;;;;3.85;2.00;;;23.10;48.60;;;;;;6134188;28;80570;-57
2022/09/03 02:39:21;;;;;;;5.68;2.20;;;23.10;48.70;;;;;;6130832;28;80532;-57
2022/09/03 02:42:22;;;;;;;3.50;1.92;;;23.10;48.60;;;;;;6126852;28;80969;-57
2022/09/03 02:45:22;;;;;;;5.45;1.80;;;23.10;48.80;;;;;;6120179;28;81368;-57
2022/09/03 02:48:23;;;;;;;4.40;1.85;;;23.10;48.90;;;;;;6117433;28;81975;-57
2022/09/03 02:51:23;;;;;;;5.60;2.10;;;23.10;48.70;;;;;;6105567;28;80873;-57
2022/09/03 02:54:24;;;;;;;4.15;2.40;;;23.10;48.80;;;;;;6124494;28;83733;-57
2022/09/03 02:57:24;;;;;;;2.80;1.92;;;23.10;48.80;;;;;;6126574;28;81804;-57
2022/09/03 03:00:25;;;;;;;3.08;1.88;;;23.10;48.80;;;;;;6125892;28;80576;-57
2022/09/03 03:03:25;;;;;;;2.25;1.55;;;23.10;48.90;;;;;;6117896;28;80255;-58
2022/09/03 03:06:26;;;;;;;2.35;1.85;;;23.10;49.00;;;;;;6120454;28;80700;-58
2022/09/03 03:09:26;;;;;;;2.97;1.77;;;23.10;48.90;;;;;;6124936;28;80283;-58
2022/09/03 03:12:30;;;;;;;3.40;1.85;;;23.10;49.00;;;;;;6124478;28;80595;-57
2022/09/03 03:15:30;;;;;;;3.40;1.92;;;23.10;49.00;;;;;;6111961;28;81079;-57
2022/09/03 03:18:31;;;;;;;4.72;1.80;;;23.10;49.00;;;;;;6119115;28;81565;-58
2022/09/03 03:21:31;;;;;;;3.85;2.20;;;23.10;48.80;;;;;;6108459;28;80457;-58
2022/09/03 03:24:32;;;;;;;4.57;2.05;;;23.10;48.90;;;;;;6101549;28;80651;-60
2022/09/03 03:27:32;;;;;;;3.70;2.00;;;23.10;49.00;;;;;;6128976;28;83841;-57
2022/09/03 03:30:33;;;;;;;4.45;1.95;;;23.10;48.90;;;;;;6133484;28;80943;-57
2022/09/03 03:33:33;;;;;;;3.55;2.35;;;23.10;49.00;;;;;;6128007;28;88400;-58
2022/09/03 03:36:33;;;;;;;2.58;1.80;;;23.10;49.10;;;;;;6127215;28;80057;-57
2022/09/03 03:39:34;;;;;;;3.17;1.95;;;23.10;49.00;;;;;;6123375;28;84184;-57
2022/09/03 03:42:34;;;;;;;12.50;2.08;;;23.10;49.10;;;;;;6124088;28;81041;-57
2022/09/03 03:45:35;;;;;;;2.78;1.70;;;23.10;49.20;;;;;;6110045;28;81047;-58
2022/09/03 03:48:35;;;;;;;3.35;1.90;;;23.10;49.10;;;;;;6118917;28;80868;-57
2022/09/03 03:51:36;;;;;;;3.70;2.15;;;23.10;49.20;;;;;;6104126;28;80636;-57
2022/09/03 03:54:37;;;;;;;4.50;2.00;;;23.10;49.20;;;;;;6115853;28;80992;-57
2022/09/03 03:57:37;;;;;;;2.53;1.73;;;23.10;49.10;;;;;;6127515;28;80574;-55
2022/09/03 04:00:38;;;;;;;2.42;1.80;;;23.10;49.30;;;;;;6119898;28;87042;-57
2022/09/03 04:03:38;;;;;;;4.32;1.88;;;23.10;49.30;;;;;;6117867;28;80835;-57
2022/09/03 04:06:39;;;;;;;4.28;2.20;;;23.10;49.40;;;;;;6122406;28;83524;-57
2022/09/03 04:09:39;;;;;;;3.92;1.80;;;23.10;49.30;;;;;;6111743;28;80170;-56
2022/09/03 04:12:40;;;;;;;4.30;1.80;;;23.10;49.30;;;;;;6116367;28;80942;-57
2022/09/03 04:15:41;;;;;;;4.03;2.20;;;23.10;49.40;;;;;;6105595;28;82036;-58
2022/09/03 04:18:41;;;;;;;2.95;2.33;;;23.10;49.30;;;;;;6118940;28;80928;-58
2022/09/03 04:21:42;;;;;;;1.70;1.60;;;23.10;49.40;;;;;;6116889;28;80316;-58
2022/09/03 04:24:42;;;;;;;3.97;1.95;;;23.10;49.40;;;;;;6130915;28;80351;-55
2022/09/03 04:27:43;;;;;;;3.10;1.60;;;23.10;49.40;;;;;;6108097;28;83201;-63
2022/09/03 04:30:43;;;;;;;3.22;2.00;;;23.10;49.60;;;;;;6102277;28;80081;-60
2022/09/03 04:33:44;;;;;;;17.75;2.50;;;23.10;49.50;;;;;;6101817;28;80552;-59
2022/09/03 04:36:45;;;;;;;7.45;1.70;;;23.10;49.70;;;;;;6106062;28;80563;-57
2022/09/03 04:39:46;;;;;;;4.05;2.25;;;23.10;49.80;;;;;;6102021;28;80680;-58
2022/09/03 04:42:46;;;;;;;6.90;2.05;;;23.20;49.70;;;;;;6119565;28;80045;-58
2022/09/03 04:45:47;;;;;;;3.72;2.05;;;23.10;49.60;;;;;;6098666;28;81013;-58
2022/09/03 04:48:47;;;;;;;4.03;2.22;;;23.20;49.90;;;;;;6108137;28;82765;-58
2022/09/03 04:51:48;;;;;;;4.45;1.73;;;23.20;49.80;;;;;;6122766;28;80534;-58
2022/09/03 04:54:49;;;;;;;2.75;2.00;;;23.20;50.10;;;;;;6124402;28;80400;-58
2022/09/03 04:57:49;;;;;;;3.15;2.05;;;23.20;50.10;;;;;;6122829;28;81974;-57
2022/09/03 05:00:50;;;;;;;4.38;2.30;;;23.30;50.20;;;;;;6108738;28;80916;-58
2022/09/03 05:03:53;;;;;;;2.55;1.80;;;23.30;50.50;;;;;;6099244;28;81221;-57
2022/09/03 05:06:54;;;;;;;6.50;2.33;;;23.30;51.60;;;;;;6101376;28;80803;-62
2022/09/03 05:09:55;;;;;;;6.65;2.40;;;23.20;52.40;;;;;;6104475;28;81323;-62
2022/09/03 05:12:56;;;;;;;5.35;2.50;;;23.30;51.90;;;;;;6113691;28;81022;-66
2022/09/03 05:15:56;;;;;;;4.57;2.17;;;23.30;52.20;;;;;;6121116;28;81529;-64
2022/09/03 05:18:58;;;;;;;5.13;1.90;;;23.30;52.60;;;;;;6101237;28;83552;-65
2022/09/03 05:21:58;;;;;;;3.22;2.10;;;23.30;52.40;;;;;;6103317;28;82282;-64
2022/09/03 05:24:59;;;;;;;4.47;2.17;;;23.30;52.30;;;;;;6105671;28;83868;-66
2022/09/03 05:28:00;;;;;;;7.10;2.97;;;23.40;52.60;;;;;;6109520;28;81206;-68
2022/09/03 05:31:01;;;;;;;5.40;2.42;;;23.30;53.00;;;;;;6111198;28;80049;-63
2022/09/03 05:34:01;;;;;;;2.33;1.67;;;23.40;52.70;;;;;;6120745;28;81154;-65
2022/09/03 05:37:02;;;;;;;3.53;1.88;;;23.40;52.80;;;;;;6103400;28;80403;-65
2022/09/03 05:40:02;;;;;;;4.25;2.25;;;23.40;52.90;;;;;;6103757;28;80617;-64
2022/09/03 05:43:03;;;;;;;4.88;2.55;;;23.40;52.90;;;;;;6111212;28;80397;-58
2022/09/03 05:46:03;;;;;;;2.97;1.88;;;23.40;52.80;;;;;;6117203;28;82172;-59
2022/09/03 05:49:03;;;;;;;6.20;2.53;;;23.40;53.00;;;;;;6090275;28;80578;-59
2022/09/03 05:52:04;;;;;;;3.30;2.00;;;23.50;53.10;;;;;;6101964;28;86006;-58
2022/09/03 05:55:05;;;;;;;15.20;2.63;;;23.50;53.10;;;;;;6102765;28;82867;-58
2022/09/03 05:58:06;;;;;;;6.07;2.10;;;23.40;52.90;;;;;;6101173;28;81061;-58
2022/09/03 06:01:06;;;;;;;7.43;2.42;;;23.40;53.10;;;;;;6106836;28;81211;-60
2022/09/03 06:04:07;;;;;;;15.55;3.25;;;23.40;53.10;;;;;;6101429;28;80239;-61
2022/09/03 06:07:07;;;;;;;6.05;2.47;;;23.40;53.10;;;;;;6103488;28;80541;-59
2022/09/03 06:10:09;;;;;;;4.80;2.60;;;23.50;52.90;;;;;;6103973;28;84972;-61
2022/09/03 06:13:10;;;;;;;7.05;2.35;;;23.50;53.00;;;;;;6119131;28;86528;-60
2022/09/03 06:16:10;;;;;;;5.88;2.45;;;23.50;52.90;;;;;;6114424;28;81419;-59
2022/09/03 06:19:12;;;;;;;5.70;2.33;;;23.50;52.70;;;;;;6109963;28;80655;-69
2022/09/03 06:22:13;;;;;;;5.97;2.42;;;23.50;52.90;;;;;;6111882;28;81081;-67
2022/09/03 06:25:14;;;;;;;5.50;2.28;;;23.50;53.10;;;;;;6106665;28;82920;-68
2022/09/03 06:28:14;;;;;;;9.55;2.72;;;23.50;53.10;;;;;;6102121;28;80906;-66
2022/09/03 06:31:15;;;;;;;5.38;3.08;;;23.60;53.40;;;;;;6102582;28;80958;-67
2022/09/03 06:34:18;;;;;;;4.97;2.78;;;23.60;53.30;;;;;;6098138;28;80708;-67
2022/09/03 06:37:19;;;;;;;8.38;2.55;;;23.60;53.40;;;;;;6114024;28;80231;-68
2022/09/03 06:40:21;;;;;;;4.35;2.83;;;23.60;53.20;;;;;;6096592;28;83785;-58
2022/09/03 06:43:22;;;;;;;7.65;3.03;;;23.60;53.30;;;;;;6095503;28;80903;-59
2022/09/03 06:46:22;;;;;;;7.07;2.28;;;23.60;53.40;;;;;;6093372;28;82235;-58
2022/09/03 06:49:24;;;;;;;8.77;2.70;;;23.70;53.50;;;;;;6103551;28;80219;-58
2022/09/03 06:52:25;;;;;;;8.43;3.47;;;23.70;53.70;;;;;;6097860;28;81462;-58
2022/09/03 06:55:25;;;;;;;6.35;3.47;;;23.60;54.00;;;;;;6098564;28;81476;-59
2022/09/03 06:58:26;;;;;;;6.75;3.20;;;23.70;54.10;;;;;;6101972;28;83650;-58
2022/09/03 07:01:26;;;;;;;8.30;2.60;;;23.70;53.90;;;;;;6102656;28;82840;-58
2022/09/03 07:04:27;;;;;;;6.28;2.67;;;23.70;54.00;;;;;;6094959;28;80687;-59
2022/09/03 07:07:27;;;;;;;10.27;2.55;;;23.70;54.30;;;;;;6115675;28;81017;-58
2022/09/03 07:10:28;;;;;;;6.25;2.80;;;23.70;54.00;;;;;;6121252;28;81030;-57
2022/09/03 07:13:28;;;;;;;6.05;2.72;;;23.70;53.70;;;;;;6120757;28;80575;-58
2022/09/03 07:16:29;;;;;;;5.38;3.03;;;23.70;53.80;;;;;;6101140;28;80191;-62
2022/09/03 07:19:29;;;;;;;11.57;3.17;;;23.70;53.70;;;;;;6110921;28;80365;-63
2022/09/03 07:22:30;;;;;;;5.35;2.55;;;23.70;53.60;;;;;;6111089;28;80503;-63
2022/09/03 07:25:30;;;;;;;5.75;2.78;;;23.70;53.50;;;;;;6112131;28;81418;-65
2022/09/03 07:28:31;;;;;;;5.93;2.40;;;23.80;53.30;;;;;;6116347;28;80501;-61
2022/09/03 07:31:32;;;;;;;5.90;2.58;;;23.80;53.30;;;;;;6128874;28;80739;-63
2022/09/03 07:34:34;;;;;;;6.40;2.88;;;23.80;53.20;;;;;;6124003;28;81236;-60
2022/09/03 07:37:35;;;;;;;6.00;2.38;;;23.80;53.50;;;;;;6119372;28;83478;-61
2022/09/03 07:40:35;;;;;;;6.30;2.67;;;23.80;53.00;;;;;;6113050;28;80691;-59
2022/09/03 07:43:36;;;;;;;4.57;2.53;;;23.70;52.90;;;;;;6118165;28;84150;-58
2022/09/03 07:46:36;;;;;;;9.15;2.55;;;23.70;52.80;;;;;;6117771;28;81501;-60
2022/09/03 07:49:37;;;;;;;16.85;3.70;;;23.70;53.10;;;;;;6123732;28;84084;-60
2022/09/03 07:52:37;;;;;;;12.43;3.03;;;23.60;52.70;;;;;;6126870;28;81417;-61
2022/09/03 07:55:39;;;;;;;5.05;2.80;;;23.40;52.90;;;;;;6126044;28;85250;-59
2022/09/03 07:58:42;;;;;;;4.22;2.60;;;23.20;52.90;;;;;;6120530;28;80366;-61
2022/09/03 08:01:42;;;;;;;10.52;2.78;;;23.00;53.10;;;;;;6110166;28;80624;-61
2022/09/03 08:04:44;;;;;;;6.10;2.65;;;22.70;53.80;;;;;;6105617;28;80790;-66
2022/09/03 08:07:44;;;;;;;5.07;2.20;;;22.80;54.70;;;;;;6123203;28;80061;-59
2022/09/03 08:10:45;;;;;;;5.55;2.63;;;22.90;54.40;;;;;;6120674;28;80483;-59
2022/09/03 08:13:45;;;;;;;6.97;2.63;;;22.80;54.80;;;;;;6113014;28;82446;-60
2022/09/03 08:16:49;;;;;;;6.18;2.75;;;22.80;54.90;;;;;;6111470;28;80388;-60
2022/09/03 08:19:49;;;;;;;7.68;2.85;;;22.40;54.90;;;;;;6116501;28;83143;-59
2022/09/03 08:22:50;;;;;;;5.03;2.33;;;22.40;55.40;;;;;;6106958;28;80727;-60
2022/09/03 08:25:50;;;;;;;6.28;2.92;;;22.60;55.00;;;;;;6104125;28;80887;-57
2022/09/03 08:28:51;;;;;;;4.47;2.38;;;22.70;55.00;;;;;;6124443;28;80899;-61
2022/09/03 08:31:52;;;;;;;5.85;2.95;;;22.80;54.50;;;;;;6118224;28;81016;-62
2022/09/03 08:34:52;;;;;;;4.07;2.25;;;22.80;54.80;;;;;;6120859;28;85078;-62
2022/09/03 08:37:53;;;;;;;6.18;2.45;;;22.90;54.80;;;;;;6108575;28;80308;-57
2022/09/03 08:40:54;;;;;;;3.70;2.50;;;22.90;54.90;;;;;;6118086;28;80182;-63
2022/09/03 08:43:55;;;;;;;4.57;2.40;;;23.00;54.80;;;;;;6108661;28;84052;-66
2022/09/03 08:46:56;;;;;;;3.67;2.33;;;22.80;54.50;;;;;;6103918;28;81139;-65
2022/09/03 08:49:57;;;;;;;3.10;2.13;;;22.80;54.70;;;;;;6115694;28;80388;-65
2022/09/03 08:52:59;;;;;;;2.78;2.10;;;22.90;54.70;;;;;;6128198;28;79888;-58
2022/09/03 08:55:59;;;;;;;2.72;2.25;;;22.90;54.80;;;;;;6126417;28;81008;-58
2022/09/03 08:59:00;;;;;;;4.78;2.45;;;23.10;54.00;;;;;;6127653;28;83166;-64
2022/09/03 09:02:01;;;;;;;5.10;2.38;;;23.10;54.30;;;;;;6128454;28;81480;-63
2022/09/03 09:05:02;;;;;;;5.03;2.15;;;23.10;54.10;;;;;;6114373;28;80439;-62
2022/09/03 09:08:03;;;;;;;3.70;2.35;;;23.10;54.20;;;;;;6121436;28;80413;-63
2022/09/03 09:11:04;;;;;;;2.67;2.28;;;23.00;53.70;;;;;;6114876;28;82118;-65
2022/09/03 09:14:05;;;;;;;2.78;2.42;;;22.80;54.00;;;;;;6115492;28;81693;-66
2022/09/03 09:17:05;;;;;;;3.35;2.00;;;22.90;54.20;;;;;;6126118;28;82801;-65
2022/09/03 09:20:06;;;;;;;3.15;2.13;;;22.80;54.50;;;;;;6123168;28;80859;-65
2022/09/03 09:23:07;;;;;;;4.32;2.22;;;22.60;54.40;;;;;;6107052;28;80296;-58
2022/09/03 09:26:08;;;;;;;5.70;2.67;;;22.50;55.30;;;;;;6118581;28;80458;-57
2022/09/03 09:29:11;;;;;;;9.07;3.92;;;22.70;55.20;;;;;;6114379;28;80588;-55
2022/09/03 09:32:11;;;;;;;4.95;2.38;;;22.60;55.20;;;;;;6116427;28;86635;-55
2022/09/03 09:35:12;;;;;;;7.85;3.10;;;22.60;55.40;;;;;;6129669;28;80853;-58
2022/09/03 09:38:13;;;;;;;5.32;2.58;;;22.80;55.40;;;;;;6105747;28;80594;-57
2022/09/03 09:41:14;;;;;;;6.32;2.75;;;22.90;55.30;;;;;;6122250;28;81145;-56
2022/09/03 09:44:14;;;;;;;5.47;2.60;;;22.90;55.20;;;;;;6125997;28;80433;-57
2022/09/03 09:47:15;;;;;;;6.53;2.60;;;23.00;55.00;;;;;;6123070;28;84148;-57
2022/09/03 09:50:15;;;;;;;5.55;2.22;;;23.00;54.80;;;;;;6118275;28;80664;-56
2022/09/03 09:53:16;;;;;;;7.72;3.40;;;23.10;54.60;;;;;;6107254;28;81231;-57
2022/09/03 09:56:17;;;;;;;5.43;2.83;;;23.10;54.90;;;;;;6124054;28;82733;-56
2022/09/03 09:59:17;;;;;;;6.00;3.40;;;23.10;55.00;;;;;;6125050;28;81061;-58
2022/09/03 10:02:19;;;;;;;12.52;3.25;;;23.10;55.10;;;;;;6118057;28;80598;-57
2022/09/03 10:05:19;;;;;;;11.38;2.85;;;23.10;55.00;;;;;;6105293;28;80304;-57
2022/09/03 10:08:20;;;;;;;3.75;2.25;;;23.10;54.80;;;;;;6133552;28;87354;-57
2022/09/03 10:11:24;;;;;;;7.18;2.63;;;23.10;54.80;;;;;;6140012;28;80629;-57
2022/09/03 10:14:24;;;;;;;7.00;2.25;;;23.20;54.70;;;;;;6150817;28;83801;-54
2022/09/03 10:17:25;;;;;;;6.15;3.25;;;23.10;55.30;;;;;;6141433;28;81316;-55
2022/09/03 10:20:32;;;;;;;2.60;1.90;;;23.20;55.20;;;;;;6125882;28;81583;-56
2022/09/03 10:23:32;;;;;;;5.68;2.75;;;23.30;55.00;;;;;;6127933;28;81151;-53
2022/09/03 10:26:33;;;;;;;87.25;16.77;;;23.20;55.00;;;;;;6136765;28;80639;-54
2022/09/03 10:29:33;;;;;;;55.70;10.88;;;23.30;55.00;;;;;;6131776;28;82919;-55
2022/09/03 10:32:34;;;;;;;38.08;9.45;;;23.20;54.90;;;;;;6139461;28;83523;-55
2022/09/03 10:35:34;;;;;;;32.05;8.02;;;23.00;55.30;;;;;;6137615;28;83400;-56
2022/09/03 10:38:38;;;;;;;28.02;7.53;;;23.10;55.40;;;;;;6139149;28;84945;-59
2022/09/03 10:41:39;;;;;;;9.50;4.43;;;23.10;56.70;;;;;;6153225;28;80480;-62
2022/09/03 10:44:41;;;;;;;11.80;4.25;;;23.20;57.00;;;;;;6128558;28;80652;-60
2022/09/03 10:47:41;;;;;;;12.15;3.67;;;22.90;55.60;;;;;;6156555;28;81414;-60
2022/09/03 10:50:41;;;;;;;5.93;3.45;;;22.70;56.50;;;;;;6146834;28;80318;-62
2022/09/03 10:53:42;;;;;;;8.30;2.95;;;22.80;55.80;;;;;;6112610;28;80377;-60
2022/09/03 10:56:42;;;;;;;6.20;3.63;;;22.40;56.20;;;;;;6105113;28;84140;-61
2022/09/03 10:59:43;;;;;;;6.88;2.65;;;22.20;56.40;;;;;;6114423;28;82829;-61
2022/09/03 11:02:44;;;;;;;7.15;3.38;;;22.40;56.50;;;;;;6114145;28;83109;-61
2022/09/03 11:05:44;;;;;;;11.38;4.68;;;22.60;56.20;;;;;;6099404;28;80813;-61
2022/09/03 11:08:45;;;;;;;8.18;5.35;;;22.80;56.20;;;;;;6118586;28;80975;-61
2022/09/03 11:11:45;;;;;;;19.17;8.68;;;23.00;56.30;;;;;;6121092;28;80237;-61
2022/09/03 11:14:46;;;;;;;7.32;4.95;;;23.00;56.00;;;;;;6118216;28;83076;-61
2022/09/03 11:17:46;;;;;;;11.10;5.78;;;22.80;55.90;;;;;;6112456;28;81747;-60
2022/09/03 11:20:48;;;;;;;7.93;6.28;;;23.00;56.40;;;;;;6122410;28;80788;-59
2022/09/03 11:23:48;;;;;;;16.40;13.25;;;23.10;56.10;;;;;;6124596;28;86052;-62
2022/09/03 11:26:49;;;;;;;95.60;67.85;;;23.30;56.50;;;;;;6127676;28;88505;-60
2022/09/03 11:29:49;;;;;;;93.10;68.75;;;23.50;57.00;;;;;;6127604;28;82920;-61
2022/09/03 11:32:51;;;;;;;108.90;80.85;;;23.50;57.00;;;;;;6117861;28;84864;-62
2022/09/03 11:35:52;;;;;;;95.88;72.45;;;23.70;57.30;;;;;;6117648;28;83918;-60
2022/09/03 11:38:52;;;;;;;71.55;54.88;;;23.80;58.00;;;;;;6119806;28;85357;-60
2022/09/03 11:41:53;;;;;;;60.33;45.53;;;23.90;58.20;;;;;;6114701;28;83414;-61
2022/09/03 11:44:54;;;;;;;42.60;31.40;;;23.90;58.00;;;;;;6123570;28;83023;-62
2022/09/03 11:47:55;;;;;;;29.38;17.23;;;24.00;57.10;;;;;;6115207;28;83107;-60
2022/09/03 11:50:56;;;;;;;23.27;13.18;;;23.90;55.50;;;;;;6113534;28;83671;-61
2022/09/03 11:53:56;;;;;;;17.17;11.32;;;23.60;57.10;;;;;;6115231;28;83078;-62
2022/09/03 11:56:57;;;;;;;12.80;10.00;;;23.70;57.00;;;;;;6116739;28;82892;-65
2022/09/03 11:59:57;;;;;;;10.10;7.32;;;23.80;57.10;;;;;;6114324;28;83420;-62
2022/09/03 12:02:57;;;;;;;7.97;5.55;;;23.80;56.50;;;;;;6115684;28;81777;-61
2022/09/03 12:05:58;;;;;;;8.80;5.55;;;23.70;55.70;;;;;;6115600;28;81042;-63
2022/09/03 12:08:58;;;;;;;5.30;4.70;;;23.80;56.20;;;;;;6106875;28;80293;-60
2022/09/03 12:11:59;;;;;;;12.38;5.72;;;24.00;56.30;;;;;;6115552;28;83366;-61
2022/09/03 12:15:00;;;;;;;7.57;4.50;;;24.10;56.20;;;;;;6123256;28;80280;-61
2022/09/03 12:18:18;;;;;;;9.55;4.30;;;24.10;55.40;;;;;;6112780;28;81527;-64
2022/09/03 12:21:19;;;;;;;7.20;3.40;;;23.90;55.80;;;;;;6098855;28;82638;-60
2022/09/03 12:24:22;;;;;;;3.25;2.53;;;23.70;56.20;;;;;;6120726;28;81782;-60
2022/09/03 12:27:23;;;;;;;7.38;3.28;;;23.60;55.40;;;;;;6127110;28;81041;-60
2022/09/03 12:30:23;;;;;;;16.95;3.20;;;23.70;55.60;;;;;;6121444;28;80554;-59
2022/09/03 12:33:24;;;;;;;6.78;2.85;;;23.70;55.20;;;;;;6103540;28;81313;-54
2022/09/03 12:36:24;;;;;;;6.05;2.85;;;23.80;55.60;;;;;;6126937;28;80896;-57
2022/09/03 12:39:25;;;;;;;6.80;3.20;;;23.90;55.70;;;;;;6125067;28;81381;-58
2022/09/03 12:42:26;;;;;;;5.65;3.03;;;24.00;55.50;;;;;;6113844;28;85053;-59
2022/09/03 12:45:26;;;;;;;4.15;2.88;;;24.10;54.90;;;;;;6119583;28;80468;-62
2022/09/03 12:48:27;;;;;;;4.22;3.03;;;24.20;54.30;;;;;;6126804;28;83554;-65
2022/09/03 12:51:27;;;;;;;9.25;3.45;;;24.30;54.40;;;;;;6112030;28;82997;-61
2022/09/03 12:54:28;;;;;;;5.45;2.78;;;24.30;55.00;;;;;;6117986;28;86069;-59
2022/09/03 12:57:28;;;;;;;4.90;2.80;;;24.30;55.20;;;;;;6111213;28;80428;-59
2022/09/03 13:00:29;;;;;;;5.82;3.28;;;24.30;55.00;;;;;;6117509;28;80264;-61
2022/09/03 13:03:29;;;;;;;6.15;2.97;;;24.40;54.70;;;;;;6118867;28;80903;-60
2022/09/03 13:06:30;;;;;;;16.55;3.00;;;24.40;54.10;;;;;;6105830;28;80630;-60
2022/09/03 13:09:31;;;;;;;3.60;2.45;;;24.30;54.40;;;;;;6119226;28;81658;-61
2022/09/03 13:12:31;;;;;;;3.75;3.00;;;24.40;53.90;;;;;;6119031;28;83233;-62
2022/09/03 13:15:32;;;;;;;4.75;2.55;;;24.40;54.00;;;;;;6112331;28;82853;-62
2022/09/03 13:18:32;;;;;;;5.47;3.13;;;24.10;54.40;;;;;;6095346;28;85967;-62
2022/09/03 13:21:33;;;;;;;4.18;2.70;;;24.20;54.70;;;;;;6101370;28;80551;-64
2022/09/03 13:24:34;;;;;;;4.22;2.83;;;24.30;54.30;;;;;;6116117;28;83077;-62
2022/09/03 13:27:34;;;;;;;5.30;2.85;;;24.40;54.20;;;;;;6123272;28;80316;-62
2022/09/03 13:30:36;;;;;;;4.53;2.60;;;24.40;53.80;;;;;;6120731;28;80691;-63
2022/09/03 13:33:37;;;;;;;6.40;2.95;;;24.40;53.60;;;;;;6124474;28;80564;-64
2022/09/03 13:36:37;;;;;;;21.13;3.35;;;24.20;54.10;;;;;;6128221;28;80311;-62
2022/09/03 13:39:38;;;;;;;14.23;3.90;;;24.20;55.10;;;;;;6128540;28;80533;-61
2022/09/03 13:42:38;;;;;;;7.90;3.25;;;24.30;54.70;;;;;;6117900;28;83446;-60
2022/09/03 13:45:39;;;;;;;10.02;3.47;;;24.40;54.80;;;;;;6127678;28;80577;-58
2022/09/03 13:51:59;;;;;;;10.50;3.17;;;24.40;54.80;;;;;;6127152;28;80454;-58
2022/09/03 13:54:59;;;;;;;6.70;3.10;;;24.40;54.00;;;;;;6124753;28;80330;-60
2022/09/03 13:58:00;;;;;;;5.82;3.25;;;24.50;54.60;;;;;;6132445;28;88145;-57
2022/09/03 14:01:00;;;;;;;15.73;3.38;;;24.40;55.30;;;;;;6118086;28;80698;-61
2022/09/03 14:04:01;;;;;;;6.03;3.17;;;24.40;55.80;;;;;;6098415;28;80337;-58
2022/09/03 14:07:02;;;;;;;9.55;3.53;;;24.50;55.90;;;;;;6102528;28;80526;-66
2022/09/03 14:10:02;;;;;;;7.10;2.92;;;24.50;56.70;;;;;;6123590;28;80685;-60
2022/09/03 14:13:03;;;;;;;6.30;3.65;;;24.20;54.40;;;;;;6119954;28;80510;-56
2022/09/03 14:16:03;;;;;;;4.95;3.25;;;23.80;55.70;;;;;;6122535;28;83440;-57
2022/09/03 14:19:05;;;;;;;7.90;3.05;;;23.70;55.30;;;;;;6117001;28;83327;-58
2022/09/03 14:22:06;;;;;;;6.93;3.63;;;23.60;54.90;;;;;;6112245;28;80416;-58
2022/09/03 14:25:06;;;;;;;3.55;2.80;;;23.70;54.50;;;;;;6125167;28;80478;-58
2022/09/03 14:28:07;;;;;;;11.10;3.35;;;23.80;54.50;;;;;;6117360;28;80034;-57
2022/09/03 14:31:07;;;;;;;4.20;2.83;;;23.80;54.30;;;;;;6123243;28;80491;-58
2022/09/03 14:34:08;;;;;;;3.53;2.83;;;23.90;54.20;;;;;;6121772;28;81598;-58
2022/09/03 14:37:09;;;;;;;3.75;2.78;;;23.80;53.80;;;;;;6108870;28;80249;-58
2022/09/03 14:40:09;;;;;;;5.50;3.55;;;23.70;54.20;;;;;;6133460;28;83780;-58
2022/09/03 14:43:10;;;;;;;5.88;3.55;;;23.60;54.30;;;;;;6119475;28;83005;-56
2022/09/03 14:46:10;;;;;;;4.97;2.65;;;23.60;54.30;;;;;;6114947;28;80267;-56
2022/09/03 14:49:11;;;;;;;5.15;3.05;;;23.70;54.50;;;;;;6124038;28;83605;-58
2022/09/03 14:52:12;;;;;;;5.25;3.40;;;23.50;54.10;;;;;;6114061;28;80995;-58
2022/09/03 14:55:13;;;;;;;9.55;3.67;;;23.40;54.50;;;;;;6121861;28;80783;-58
2022/09/03 14:58:13;;;;;;;4.50;3.13;;;23.40;54.30;;;;;;6122258;28;80662;-57
2022/09/03 15:01:14;;;;;;;4.82;3.17;;;23.30;54.80;;;;;;6120377;28;81659;-57
2022/09/03 15:04:15;;;;;;;6.18;3.53;;;23.30;54.50;;;;;;6104453;28;81315;-57
2022/09/03 15:07:16;;;;;;;5.97;3.35;;;23.40;54.70;;;;;;6112811;28;80414;-57
2022/09/03 15:10:17;;;;;;;10.95;3.92;;;23.40;54.60;;;;;;6110544;28;83631;-57
2022/09/03 15:13:18;;;;;;;4.22;3.25;;;23.30;54.70;;;;;;6103013;28;80587;-58
2022/09/03 15:16:18;;;;;;;8.35;3.45;;;23.20;54.50;;;;;;6105621;28;80376;-57
2022/09/03 15:19:19;;;;;;;5.50;3.08;;;23.10;54.80;;;;;;6112878;28;80324;-56
2022/09/03 15:22:19;;;;;;;3.58;2.97;;;23.20;54.80;;;;;;6106933;28;81716;-57
2022/09/03 15:25:20;;;;;;;4.40;2.80;;;23.30;54.90;;;;;;6124509;28;80441;-57
2022/09/03 15:28:20;;;;;;;4.65;3.00;;;23.30;54.90;;;;;;6110585;28;81307;-57
2022/09/03 15:31:21;;;;;;;9.68;3.45;;;23.40;55.00;;;;;;6115276;28;81292;-59
2022/09/03 15:34:21;;;;;;;12.02;3.88;;;23.40;55.00;;;;;;6116757;28;80610;-59
2022/09/03 15:37:22;;;;;;;6.95;4.07;;;23.40;55.10;;;;;;6100527;28;81070;-59
2022/09/03 15:40:23;;;;;;;6.38;3.60;;;23.40;54.80;;;;;;6115453;28;80713;-58
2022/09/03 15:43:23;;;;;;;7.00;3.67;;;23.40;54.90;;;;;;6125709;28;81957;-58
2022/09/03 15:46:23;;;;;;;7.20;3.80;;;23.30;55.00;;;;;;6124761;28;84181;-58